sensor_id;sensor_type;location;lat;lon;timestamp;P1;durP1;ratioP1;P2;durP2;ratioP2
53269;SDS011;39159;45.634;9.420;2022-12-24T00:00:25;92.70;;;46.75;;
53269;SDS011;39159;45.634;9.420;2022-12-24T00:02:51;93.25;;;46.83;;
53269;SDS011;39159;45.634;9.420;2022-12-24T00:05:17;87.35;;;45.50;;
53269;SDS011;39159;45.634;9.420;2022-12-24T00:07:43;97.28;;;47.90;;
53269;SDS011;39159;45.634;9.420;2022-12-24T00:10:08;102.95;;;49.53;;
53269;SDS011;39159;45.634;9.420;2022-12-24T00:12:34;96.80;;;48.10;;
53269;SDS011;39159;45.634;9.420;2022-12-24T00:15:00;105.57;;;50.45;;
53269;SDS011;39159;45.634;9.420;2022-12-24T00:17:26;107.30;;;49.80;;
53269;SDS011;39159;45.634;9.420;2022-12-24T00:19:52;108.03;;;49.92;;
53269;SDS011;39159;45.634;9.420;2022-12-24T00:22:17;111.07;;;50.45;;
53269;SDS011;39159;45.634;9.420;2022-12-24T00:24:42;102.50;;;48.75;;
53269;SDS011;39159;45.634;9.420;2022-12-24T00:27:08;109.30;;;51.20;;
53269;SDS011;39159;45.634;9.420;2022-12-24T00:29:33;110.35;;;50.53;;
53269;SDS011;39159;45.634;9.420;2022-12-24T00:31:59;101.70;;;47.58;;
53269;SDS011;39159;45.634;9.420;2022-12-24T00:34:24;104.47;;;48.75;;
53269;SDS011;39159;45.634;9.420;2022-12-24T00:36:50;104.20;;;50.97;;
53269;SDS011;39159;45.634;9.420;2022-12-24T00:39:16;107.55;;;52.30;;
53269;SDS011;39159;45.634;9.420;2022-12-24T00:41:41;113.80;;;53.67;;
53269;SDS011;39159;45.634;9.420;2022-12-24T00:44:07;113.72;;;53.75;;
53269;SDS011;39159;45.634;9.420;2022-12-24T00:46:34;114.75;;;52.50;;
53269;SDS011;39159;45.634;9.420;2022-12-24T00:49:00;111.78;;;52.80;;
53269;SDS011;39159;45.634;9.420;2022-12-24T00:51:26;114.20;;;55.60;;
53269;SDS011;39159;45.634;9.420;2022-12-24T00:53:52;118.55;;;54.05;;
53269;SDS011;39159;45.634;9.420;2022-12-24T00:56:18;118.13;;;53.30;;
53269;SDS011;39159;45.634;9.420;2022-12-24T00:58:44;118.93;;;53.97;;
53269;SDS011;39159;45.634;9.420;2022-12-24T01:01:09;120.25;;;53.47;;
53269;SDS011;39159;45.634;9.420;2022-12-24T01:03:35;124.07;;;54.40;;
53269;SDS011;39159;45.634;9.420;2022-12-24T01:06:11;112.88;;;55.50;;
53269;SDS011;39159;45.634;9.420;2022-12-24T01:08:38;121.15;;;55.42;;
53269;SDS011;39159;45.634;9.420;2022-12-24T01:11:05;116.15;;;53.83;;
53269;SDS011;39159;45.634;9.420;2022-12-24T01:13:31;111.75;;;54.13;;
53269;SDS011;39159;45.634;9.420;2022-12-24T01:15:57;110.93;;;52.22;;
53269;SDS011;39159;45.634;9.420;2022-12-24T01:18:23;119.32;;;52.55;;
53269;SDS011;39159;45.634;9.420;2022-12-24T01:20:59;114.10;;;51.67;;
53269;SDS011;39159;45.634;9.420;2022-12-24T01:23:26;113.40;;;52.30;;
53269;SDS011;39159;45.634;9.420;2022-12-24T01:25:53;115.43;;;51.55;;
53269;SDS011;39159;45.634;9.420;2022-12-24T01:28:19;112.30;;;50.42;;
53269;SDS011;39159;45.634;9.420;2022-12-24T01:30:46;112.55;;;53.05;;
53269;SDS011;39159;45.634;9.420;2022-12-24T01:33:12;102.65;;;50.70;;
53269;SDS011;39159;45.634;9.420;2022-12-24T01:35:38;107.40;;;50.13;;
53269;SDS011;39159;45.634;9.420;2022-12-24T01:38:05;110.03;;;49.28;;
53269;SDS011;39159;45.634;9.420;2022-12-24T01:40:30;113.15;;;49.95;;
53269;SDS011;39159;45.634;9.420;2022-12-24T01:43:18;103.07;;;47.95;;
53269;SDS011;39159;45.634;9.420;2022-12-24T01:48:40;108.40;;;51.22;;
53269;SDS011;39159;45.634;9.420;2022-12-24T01:53:41;103.70;;;49.45;;
53269;SDS011;39159;45.634;9.420;2022-12-24T01:56:09;106.60;;;48.67;;
53269;SDS011;39159;45.634;9.420;2022-12-24T01:58:37;106.72;;;49.40;;
53269;SDS011;39159;45.634;9.420;2022-12-24T02:01:07;107.68;;;49.42;;
53269;SDS011;39159;45.634;9.420;2022-12-24T02:03:33;114.07;;;51.95;;
53269;SDS011;39159;45.634;9.420;2022-12-24T02:05:59;112.75;;;52.88;;
53269;SDS011;39159;45.634;9.420;2022-12-24T02:08:25;105.45;;;51.28;;
53269;SDS011;39159;45.634;9.420;2022-12-24T02:11:08;108.68;;;49.20;;
53269;SDS011;39159;45.634;9.420;2022-12-24T02:13:34;96.72;;;45.80;;
53269;SDS011;39159;45.634;9.420;2022-12-24T02:18:39;100.07;;;48.75;;
53269;SDS011;39159;45.634;9.420;2022-12-24T02:26:30;116.32;;;52.25;;
53269;SDS011;39159;45.634;9.420;2022-12-24T02:32:01;111.53;;;49.15;;
53269;SDS011;39159;45.634;9.420;2022-12-24T02:39:53;110.63;;;50.53;;
53269;SDS011;39159;45.634;9.420;2022-12-24T02:42:29;101.22;;;49.03;;
53269;SDS011;39159;45.634;9.420;2022-12-24T02:45:03;107.88;;;51.50;;
53269;SDS011;39159;45.634;9.420;2022-12-24T02:47:32;102.28;;;47.90;;
53269;SDS011;39159;45.634;9.420;2022-12-24T02:49:59;100.40;;;49.40;;
53269;SDS011;39159;45.634;9.420;2022-12-24T02:52:34;110.57;;;51.47;;
53269;SDS011;39159;45.634;9.420;2022-12-24T02:55:04;103.10;;;49.65;;
53269;SDS011;39159;45.634;9.420;2022-12-24T03:00:25;114.00;;;51.28;;
53269;SDS011;39159;45.634;9.420;2022-12-24T03:05:56;105.05;;;50.53;;
53269;SDS011;39159;45.634;9.420;2022-12-24T03:11:41;103.55;;;48.20;;
53269;SDS011;39159;45.634;9.420;2022-12-24T03:14:12;106.13;;;49.05;;
53269;SDS011;39159;45.634;9.420;2022-12-24T03:16:39;104.18;;;51.15;;
53269;SDS011;39159;45.634;9.420;2022-12-24T03:19:06;104.82;;;50.65;;
53269;SDS011;39159;45.634;9.420;2022-12-24T03:21:33;107.05;;;49.38;;
53269;SDS011;39159;45.634;9.420;2022-12-24T03:24:00;94.25;;;46.30;;
53269;SDS011;39159;45.634;9.420;2022-12-24T03:26:28;102.10;;;49.25;;
53269;SDS011;39159;45.634;9.420;2022-12-24T03:28:56;102.70;;;48.75;;
53269;SDS011;39159;45.634;9.420;2022-12-24T03:31:22;87.85;;;45.03;;
53269;SDS011;39159;45.634;9.420;2022-12-24T03:33:48;87.47;;;43.55;;
53269;SDS011;39159;45.634;9.420;2022-12-24T03:36:14;88.75;;;43.92;;
53269;SDS011;39159;45.634;9.420;2022-12-24T03:38:40;96.35;;;46.95;;
53269;SDS011;39159;45.634;9.420;2022-12-24T03:41:06;100.97;;;46.97;;
53269;SDS011;39159;45.634;9.420;2022-12-24T03:43:32;91.93;;;45.50;;
53269;SDS011;39159;45.634;9.420;2022-12-24T03:45:57;98.55;;;46.65;;
53269;SDS011;39159;45.634;9.420;2022-12-24T03:48:28;89.80;;;44.97;;
53269;SDS011;39159;45.634;9.420;2022-12-24T03:50:53;99.45;;;45.85;;
53269;SDS011;39159;45.634;9.420;2022-12-24T03:53:19;95.70;;;46.78;;
53269;SDS011;39159;45.634;9.420;2022-12-24T03:55:44;94.32;;;45.42;;
53269;SDS011;39159;45.634;9.420;2022-12-24T03:58:11;97.90;;;47.42;;
53269;SDS011;39159;45.634;9.420;2022-12-24T04:00:36;100.38;;;47.63;;
53269;SDS011;39159;45.634;9.420;2022-12-24T04:03:02;103.88;;;47.33;;
53269;SDS011;39159;45.634;9.420;2022-12-24T04:05:27;98.10;;;47.40;;
53269;SDS011;39159;45.634;9.420;2022-12-24T04:07:52;100.57;;;48.00;;
53269;SDS011;39159;45.634;9.420;2022-12-24T04:10:18;96.70;;;44.00;;
53269;SDS011;39159;45.634;9.420;2022-12-24T04:12:43;103.85;;;48.95;;
53269;SDS011;39159;45.634;9.420;2022-12-24T04:15:09;103.47;;;47.63;;
53269;SDS011;39159;45.634;9.420;2022-12-24T04:17:35;103.63;;;48.17;;
53269;SDS011;39159;45.634;9.420;2022-12-24T04:20:00;99.50;;;47.08;;
53269;SDS011;39159;45.634;9.420;2022-12-24T04:22:26;93.93;;;44.15;;
53269;SDS011;39159;45.634;9.420;2022-12-24T04:24:51;100.30;;;46.95;;
53269;SDS011;39159;45.634;9.420;2022-12-24T04:27:17;92.97;;;43.58;;
53269;SDS011;39159;45.634;9.420;2022-12-24T04:29:42;96.63;;;46.58;;
53269;SDS011;39159;45.634;9.420;2022-12-24T04:32:08;98.90;;;47.78;;
53269;SDS011;39159;45.634;9.420;2022-12-24T04:34:34;113.35;;;50.85;;
53269;SDS011;39159;45.634;9.420;2022-12-24T04:37:00;102.63;;;49.03;;
53269;SDS011;39159;45.634;9.420;2022-12-24T04:39:25;118.40;;;52.83;;
53269;SDS011;39159;45.634;9.420;2022-12-24T04:41:50;109.60;;;49.55;;
53269;SDS011;39159;45.634;9.420;2022-12-24T04:44:16;103.47;;;47.95;;
53269;SDS011;39159;45.634;9.420;2022-12-24T04:46:41;94.50;;;46.40;;
53269;SDS011;39159;45.634;9.420;2022-12-24T04:49:07;99.13;;;46.63;;
53269;SDS011;39159;45.634;9.420;2022-12-24T04:51:33;98.53;;;48.22;;
53269;SDS011;39159;45.634;9.420;2022-12-24T04:53:58;82.82;;;44.20;;
53269;SDS011;39159;45.634;9.420;2022-12-24T04:56:25;94.20;;;46.17;;
53269;SDS011;39159;45.634;9.420;2022-12-24T04:58:52;90.40;;;44.30;;
53269;SDS011;39159;45.634;9.420;2022-12-24T05:01:22;91.22;;;43.70;;
53269;SDS011;39159;45.634;9.420;2022-12-24T05:03:49;92.97;;;43.67;;
53269;SDS011;39159;45.634;9.420;2022-12-24T05:06:17;93.78;;;45.40;;
53269;SDS011;39159;45.634;9.420;2022-12-24T05:08:47;87.70;;;43.55;;
53269;SDS011;39159;45.634;9.420;2022-12-24T05:11:13;85.15;;;43.85;;
53269;SDS011;39159;45.634;9.420;2022-12-24T05:13:40;83.10;;;42.17;;
53269;SDS011;39159;45.634;9.420;2022-12-24T05:16:07;82.65;;;42.58;;
53269;SDS011;39159;45.634;9.420;2022-12-24T05:18:32;91.22;;;44.30;;
53269;SDS011;39159;45.634;9.420;2022-12-24T05:20:58;87.90;;;43.85;;
53269;SDS011;39159;45.634;9.420;2022-12-24T05:23:23;86.78;;;42.63;;
53269;SDS011;39159;45.634;9.420;2022-12-24T05:26:27;77.20;;;40.75;;
53269;SDS011;39159;45.634;9.420;2022-12-24T05:29:02;87.60;;;42.33;;
53269;SDS011;39159;45.634;9.420;2022-12-24T05:31:30;77.07;;;40.28;;
53269;SDS011;39159;45.634;9.420;2022-12-24T05:33:57;80.20;;;41.67;;
53269;SDS011;39159;45.634;9.420;2022-12-24T05:36:23;83.03;;;41.45;;
53269;SDS011;39159;45.634;9.420;2022-12-24T05:38:49;86.18;;;42.75;;
53269;SDS011;39159;45.634;9.420;2022-12-24T05:41:15;80.00;;;41.90;;
53269;SDS011;39159;45.634;9.420;2022-12-24T05:43:41;89.63;;;41.95;;
53269;SDS011;39159;45.634;9.420;2022-12-24T05:46:07;82.13;;;42.65;;
53269;SDS011;39159;45.634;9.420;2022-12-24T05:48:35;82.85;;;42.78;;
53269;SDS011;39159;45.634;9.420;2022-12-24T05:51:05;85.63;;;45.15;;
53269;SDS011;39159;45.634;9.420;2022-12-24T05:53:32;89.40;;;42.67;;
53269;SDS011;39159;45.634;9.420;2022-12-24T05:56:05;79.95;;;42.03;;
53269;SDS011;39159;45.634;9.420;2022-12-24T05:58:33;84.40;;;43.80;;
53269;SDS011;39159;45.634;9.420;2022-12-24T06:01:00;90.55;;;45.60;;
53269;SDS011;39159;45.634;9.420;2022-12-24T06:03:26;90.50;;;44.30;;
53269;SDS011;39159;45.634;9.420;2022-12-24T06:05:59;86.60;;;44.63;;
53269;SDS011;39159;45.634;9.420;2022-12-24T06:08:30;88.40;;;43.50;;
53269;SDS011;39159;45.634;9.420;2022-12-24T06:10:57;90.50;;;43.72;;
53269;SDS011;39159;45.634;9.420;2022-12-24T06:13:24;86.68;;;43.47;;
53269;SDS011;39159;45.634;9.420;2022-12-24T06:15:53;80.25;;;43.95;;
53269;SDS011;39159;45.634;9.420;2022-12-24T06:18:20;94.10;;;43.17;;
53269;SDS011;39159;45.634;9.420;2022-12-24T06:20:48;86.40;;;45.22;;
53269;SDS011;39159;45.634;9.420;2022-12-24T06:23:17;89.55;;;44.20;;
53269;SDS011;39159;45.634;9.420;2022-12-24T06:25:43;88.72;;;44.67;;
53269;SDS011;39159;45.634;9.420;2022-12-24T06:28:08;82.22;;;44.08;;
53269;SDS011;39159;45.634;9.420;2022-12-24T06:30:34;83.15;;;42.42;;
53269;SDS011;39159;45.634;9.420;2022-12-24T06:32:59;80.07;;;41.22;;
53269;SDS011;39159;45.634;9.420;2022-12-24T06:35:25;81.45;;;40.80;;
53269;SDS011;39159;45.634;9.420;2022-12-24T06:37:50;76.10;;;40.03;;
53269;SDS011;39159;45.634;9.420;2022-12-24T06:40:15;78.35;;;40.17;;
53269;SDS011;39159;45.634;9.420;2022-12-24T06:42:41;82.03;;;38.97;;
53269;SDS011;39159;45.634;9.420;2022-12-24T06:45:06;76.70;;;38.72;;
53269;SDS011;39159;45.634;9.420;2022-12-24T06:47:32;79.45;;;38.72;;
53269;SDS011;39159;45.634;9.420;2022-12-24T06:49:58;76.28;;;37.83;;
53269;SDS011;39159;45.634;9.420;2022-12-24T06:52:23;69.07;;;35.28;;
53269;SDS011;39159;45.634;9.420;2022-12-24T06:54:48;72.25;;;36.10;;
53269;SDS011;39159;45.634;9.420;2022-12-24T06:57:14;67.45;;;35.28;;
53269;SDS011;39159;45.634;9.420;2022-12-24T06:59:39;70.97;;;36.35;;
53269;SDS011;39159;45.634;9.420;2022-12-24T07:02:05;68.57;;;35.50;;
53269;SDS011;39159;45.634;9.420;2022-12-24T07:04:30;71.72;;;35.28;;
53269;SDS011;39159;45.634;9.420;2022-12-24T07:06:56;68.82;;;36.83;;
53269;SDS011;39159;45.634;9.420;2022-12-24T07:09:21;65.53;;;33.95;;
53269;SDS011;39159;45.634;9.420;2022-12-24T07:11:47;67.13;;;34.85;;
53269;SDS011;39159;45.634;9.420;2022-12-24T07:14:12;71.55;;;36.50;;
53269;SDS011;39159;45.634;9.420;2022-12-24T07:16:38;63.72;;;34.30;;
53269;SDS011;39159;45.634;9.420;2022-12-24T07:19:03;68.70;;;34.00;;
53269;SDS011;39159;45.634;9.420;2022-12-24T07:21:28;59.60;;;31.83;;
53269;SDS011;39159;45.634;9.420;2022-12-24T07:23:54;57.20;;;30.35;;
53269;SDS011;39159;45.634;9.420;2022-12-24T07:26:19;57.90;;;32.20;;
53269;SDS011;39159;45.634;9.420;2022-12-24T07:28:45;58.75;;;31.75;;
53269;SDS011;39159;45.634;9.420;2022-12-24T07:31:10;59.38;;;31.70;;
53269;SDS011;39159;45.634;9.420;2022-12-24T07:33:36;65.40;;;32.85;;
53269;SDS011;39159;45.634;9.420;2022-12-24T07:36:02;58.08;;;31.02;;
53269;SDS011;39159;45.634;9.420;2022-12-24T07:38:30;63.45;;;31.38;;
53269;SDS011;39159;45.634;9.420;2022-12-24T07:40:56;56.70;;;30.75;;
53269;SDS011;39159;45.634;9.420;2022-12-24T07:43:22;56.80;;;29.77;;
53269;SDS011;39159;45.634;9.420;2022-12-24T07:45:48;62.03;;;32.25;;
53269;SDS011;39159;45.634;9.420;2022-12-24T07:48:14;60.33;;;32.28;;
53269;SDS011;39159;45.634;9.420;2022-12-24T07:50:40;56.15;;;30.15;;
53269;SDS011;39159;45.634;9.420;2022-12-24T07:53:05;59.88;;;31.25;;
53269;SDS011;39159;45.634;9.420;2022-12-24T07:55:31;59.63;;;30.27;;
53269;SDS011;39159;45.634;9.420;2022-12-24T07:57:56;59.25;;;32.13;;
53269;SDS011;39159;45.634;9.420;2022-12-24T08:00:22;53.15;;;30.05;;
53269;SDS011;39159;45.634;9.420;2022-12-24T08:02:47;56.90;;;32.22;;
53269;SDS011;39159;45.634;9.420;2022-12-24T08:05:13;58.63;;;31.58;;
53269;SDS011;39159;45.634;9.420;2022-12-24T08:07:38;64.03;;;32.35;;
53269;SDS011;39159;45.634;9.420;2022-12-24T08:10:04;64.20;;;32.72;;
53269;SDS011;39159;45.634;9.420;2022-12-24T08:12:30;58.35;;;32.25;;
53269;SDS011;39159;45.634;9.420;2022-12-24T08:14:55;64.00;;;34.55;;
53269;SDS011;39159;45.634;9.420;2022-12-24T08:17:20;66.10;;;34.45;;
53269;SDS011;39159;45.634;9.420;2022-12-24T08:19:46;67.68;;;33.80;;
53269;SDS011;39159;45.634;9.420;2022-12-24T08:22:11;66.00;;;36.03;;
53269;SDS011;39159;45.634;9.420;2022-12-24T08:24:37;61.92;;;34.08;;
53269;SDS011;39159;45.634;9.420;2022-12-24T08:27:02;75.47;;;34.17;;
53269;SDS011;39159;45.634;9.420;2022-12-24T08:29:28;60.95;;;32.92;;
53269;SDS011;39159;45.634;9.420;2022-12-24T08:31:53;65.28;;;33.10;;
53269;SDS011;39159;45.634;9.420;2022-12-24T08:34:18;57.88;;;31.38;;
53269;SDS011;39159;45.634;9.420;2022-12-24T08:36:44;73.45;;;36.80;;
53269;SDS011;39159;45.634;9.420;2022-12-24T08:39:09;67.60;;;34.70;;
53269;SDS011;39159;45.634;9.420;2022-12-24T08:41:35;66.15;;;35.58;;
53269;SDS011;39159;45.634;9.420;2022-12-24T08:44:00;65.20;;;34.42;;
53269;SDS011;39159;45.634;9.420;2022-12-24T08:46:26;58.92;;;34.10;;
53269;SDS011;39159;45.634;9.420;2022-12-24T08:48:51;67.78;;;36.75;;
53269;SDS011;39159;45.634;9.420;2022-12-24T08:51:17;65.55;;;36.05;;
53269;SDS011;39159;45.634;9.420;2022-12-24T08:53:43;71.03;;;36.20;;
53269;SDS011;39159;45.634;9.420;2022-12-24T08:56:09;65.28;;;34.10;;
53269;SDS011;39159;45.634;9.420;2022-12-24T08:58:36;72.43;;;36.53;;
53269;SDS011;39159;45.634;9.420;2022-12-24T09:01:08;83.20;;;40.28;;
53269;SDS011;39159;45.634;9.420;2022-12-24T09:03:38;72.88;;;37.10;;
53269;SDS011;39159;45.634;9.420;2022-12-24T09:06:05;73.82;;;38.28;;
53269;SDS011;39159;45.634;9.420;2022-12-24T09:08:31;83.85;;;39.13;;
53269;SDS011;39159;45.634;9.420;2022-12-24T09:11:08;94.22;;;40.95;;
53269;SDS011;39159;45.634;9.420;2022-12-24T09:13:35;72.28;;;36.20;;
53269;SDS011;39159;45.634;9.420;2022-12-24T09:16:01;75.13;;;36.95;;
53269;SDS011;39159;45.634;9.420;2022-12-24T09:18:27;75.47;;;37.00;;
53269;SDS011;39159;45.634;9.420;2022-12-24T09:20:59;90.25;;;38.15;;
53269;SDS011;39159;45.634;9.420;2022-12-24T09:23:26;75.25;;;36.45;;
53269;SDS011;39159;45.634;9.420;2022-12-24T09:25:52;78.40;;;36.95;;
53269;SDS011;39159;45.634;9.420;2022-12-24T09:28:17;84.95;;;37.28;;
53269;SDS011;39159;45.634;9.420;2022-12-24T09:30:43;86.53;;;38.40;;
53269;SDS011;39159;45.634;9.420;2022-12-24T09:33:08;98.18;;;40.25;;
53269;SDS011;39159;45.634;9.420;2022-12-24T09:35:36;93.35;;;40.13;;
53269;SDS011;39159;45.634;9.420;2022-12-24T09:38:02;92.43;;;39.78;;
53269;SDS011;39159;45.634;9.420;2022-12-24T09:40:32;99.95;;;40.17;;
53269;SDS011;39159;45.634;9.420;2022-12-24T09:43:03;93.72;;;41.63;;
53269;SDS011;39159;45.634;9.420;2022-12-24T09:45:37;103.35;;;42.80;;
53269;SDS011;39159;45.634;9.420;2022-12-24T09:48:13;107.90;;;45.33;;
53269;SDS011;39159;45.634;9.420;2022-12-24T10:27:49;125.22;;;51.15;;
53269;SDS011;39159;45.634;9.420;2022-12-24T10:30:19;112.55;;;50.47;;
53269;SDS011;39159;45.634;9.420;2022-12-24T10:32:47;112.53;;;50.25;;
53269;SDS011;39159;45.634;9.420;2022-12-24T10:37:40;126.78;;;53.47;;
53269;SDS011;39159;45.634;9.420;2022-12-24T10:40:11;119.10;;;50.40;;
53269;SDS011;39159;45.634;9.420;2022-12-24T10:42:58;111.47;;;48.83;;
53269;SDS011;39159;45.634;9.420;2022-12-24T10:45:25;121.90;;;50.05;;
53269;SDS011;39159;45.634;9.420;2022-12-24T10:47:56;120.00;;;50.15;;
53269;SDS011;39159;45.634;9.420;2022-12-24T10:50:30;112.75;;;50.50;;
53269;SDS011;39159;45.634;9.420;2022-12-24T10:53:06;120.20;;;53.05;;
53269;SDS011;39159;45.634;9.420;2022-12-24T10:56:08;116.15;;;49.95;;
53269;SDS011;39159;45.634;9.420;2022-12-24T10:58:41;115.17;;;50.70;;
53269;SDS011;39159;45.634;9.420;2022-12-24T11:01:08;107.82;;;48.88;;
53269;SDS011;39159;45.634;9.420;2022-12-24T11:03:34;106.72;;;50.33;;
53269;SDS011;39159;45.634;9.420;2022-12-24T11:08:29;106.55;;;49.13;;
53269;SDS011;39159;45.634;9.420;2022-12-24T11:10:58;110.97;;;49.70;;
53269;SDS011;39159;45.634;9.420;2022-12-24T11:16:19;122.72;;;53.05;;
53269;SDS011;39159;45.634;9.420;2022-12-24T11:18:51;126.60;;;50.78;;
53269;SDS011;39159;45.634;9.420;2022-12-24T11:21:26;128.32;;;51.55;;
53269;SDS011;39159;45.634;9.420;2022-12-24T11:23:58;142.00;;;53.22;;
53269;SDS011;39159;45.634;9.420;2022-12-24T11:26:28;134.13;;;54.55;;
53269;SDS011;39159;45.634;9.420;2022-12-24T11:29:03;151.27;;;53.85;;
53269;SDS011;39159;45.634;9.420;2022-12-24T11:31:38;140.27;;;56.35;;
53269;SDS011;39159;45.634;9.420;2022-12-24T11:39:40;169.20;;;58.20;;
53269;SDS011;39159;45.634;9.420;2022-12-24T11:42:25;163.05;;;54.58;;
53269;SDS011;39159;45.634;9.420;2022-12-24T11:44:56;158.18;;;56.17;;
53269;SDS011;39159;45.634;9.420;2022-12-24T11:47:35;165.00;;;55.13;;
53269;SDS011;39159;45.634;9.420;2022-12-24T11:58:29;144.10;;;52.90;;
53269;SDS011;39159;45.634;9.420;2022-12-24T12:01:16;127.78;;;47.90;;
53269;SDS011;39159;45.634;9.420;2022-12-24T12:03:46;138.57;;;51.40;;
53269;SDS011;39159;45.634;9.420;2022-12-24T12:08:53;156.88;;;54.25;;
53269;SDS011;39159;45.634;9.420;2022-12-24T12:11:24;165.77;;;58.10;;
53269;SDS011;39159;45.634;9.420;2022-12-24T12:13:51;164.18;;;58.03;;
53269;SDS011;39159;45.634;9.420;2022-12-24T12:16:20;162.48;;;60.67;;
53269;SDS011;39159;45.634;9.420;2022-12-24T12:18:53;157.77;;;61.30;;
53269;SDS011;39159;45.634;9.420;2022-12-24T12:21:34;153.55;;;57.60;;
53269;SDS011;39159;45.634;9.420;2022-12-24T12:24:12;155.10;;;53.80;;
53269;SDS011;39159;45.634;9.420;2022-12-24T12:26:44;142.70;;;53.83;;
53269;SDS011;39159;45.634;9.420;2022-12-24T12:29:28;151.15;;;56.53;;
53269;SDS011;39159;45.634;9.420;2022-12-24T12:32:07;146.10;;;54.42;;
53269;SDS011;39159;45.634;9.420;2022-12-24T12:34:54;161.88;;;57.03;;
53269;SDS011;39159;45.634;9.420;2022-12-24T12:37:27;176.88;;;59.38;;
53269;SDS011;39159;45.634;9.420;2022-12-24T12:47:51;147.75;;;56.67;;
53269;SDS011;39159;45.634;9.420;2022-12-24T12:58:08;135.77;;;53.03;;
53269;SDS011;39159;45.634;9.420;2022-12-24T13:00:41;135.73;;;54.45;;
53269;SDS011;39159;45.634;9.420;2022-12-24T13:17:37;129.80;;;55.35;;
53269;SDS011;39159;45.634;9.420;2022-12-24T13:20:26;125.55;;;52.28;;
53269;SDS011;39159;45.634;9.420;2022-12-24T13:25:28;120.47;;;53.55;;
53269;SDS011;39159;45.634;9.420;2022-12-24T13:28:13;116.43;;;51.53;;
53269;SDS011;39159;45.634;9.420;2022-12-24T13:36:04;112.90;;;52.22;;
53269;SDS011;39159;45.634;9.420;2022-12-24T13:38:43;109.13;;;50.97;;
53269;SDS011;39159;45.634;9.420;2022-12-24T13:46:48;121.85;;;53.25;;
53269;SDS011;39159;45.634;9.420;2022-12-24T13:49:34;114.65;;;52.75;;
53269;SDS011;39159;45.634;9.420;2022-12-24T14:05:43;119.45;;;52.22;;
53269;SDS011;39159;45.634;9.420;2022-12-24T14:08:13;124.00;;;56.65;;
53269;SDS011;39159;45.634;9.420;2022-12-24T14:11:24;120.80;;;56.08;;
53269;SDS011;39159;45.634;9.420;2022-12-24T14:16:23;125.22;;;58.85;;
53269;SDS011;39159;45.634;9.420;2022-12-24T14:18:56;121.20;;;56.08;;
53269;SDS011;39159;45.634;9.420;2022-12-24T14:24:35;118.95;;;55.67;;
53269;SDS011;39159;45.634;9.420;2022-12-24T14:27:11;129.15;;;57.60;;
53269;SDS011;39159;45.634;9.420;2022-12-24T14:29:48;124.53;;;56.83;;
53269;SDS011;39159;45.634;9.420;2022-12-24T14:32:20;122.35;;;58.38;;
53269;SDS011;39159;45.634;9.420;2022-12-24T14:34:45;127.38;;;56.90;;
53269;SDS011;39159;45.634;9.420;2022-12-24T14:37:11;127.15;;;58.78;;
53269;SDS011;39159;45.634;9.420;2022-12-24T14:39:39;130.25;;;57.92;;
53269;SDS011;39159;45.634;9.420;2022-12-24T14:47:30;122.72;;;58.75;;
53269;SDS011;39159;45.634;9.420;2022-12-24T14:56:23;128.40;;;57.88;;
53269;SDS011;39159;45.634;9.420;2022-12-24T14:58:49;133.75;;;59.45;;
53269;SDS011;39159;45.634;9.420;2022-12-24T15:04:01;122.28;;;55.58;;
53269;SDS011;39159;45.634;9.420;2022-12-24T15:09:05;132.35;;;57.15;;
53269;SDS011;39159;45.634;9.420;2022-12-24T15:11:41;130.63;;;61.75;;
53269;SDS011;39159;45.634;9.420;2022-12-24T15:14:08;140.98;;;61.05;;
53269;SDS011;39159;45.634;9.420;2022-12-24T15:16:35;136.80;;;61.63;;
53269;SDS011;39159;45.634;9.420;2022-12-24T15:19:04;137.70;;;63.53;;
53269;SDS011;39159;45.634;9.420;2022-12-24T15:21:50;143.65;;;62.50;;
53269;SDS011;39159;45.634;9.420;2022-12-24T15:24:28;139.65;;;58.00;;
53269;SDS011;39159;45.634;9.420;2022-12-24T15:26:59;138.10;;;58.78;;
53269;SDS011;39159;45.634;9.420;2022-12-24T15:29:30;142.68;;;63.45;;
53269;SDS011;39159;45.634;9.420;2022-12-24T15:32:00;149.40;;;63.70;;
53269;SDS011;39159;45.634;9.420;2022-12-24T15:34:35;152.25;;;64.55;;
53269;SDS011;39159;45.634;9.420;2022-12-24T15:42:43;140.98;;;60.58;;
53269;SDS011;39159;45.634;9.420;2022-12-24T15:45:16;130.70;;;57.45;;
53269;SDS011;39159;45.634;9.420;2022-12-24T15:47:51;131.20;;;58.67;;
53269;SDS011;39159;45.634;9.420;2022-12-24T15:53:04;133.02;;;59.70;;
53269;SDS011;39159;45.634;9.420;2022-12-24T15:55:33;151.68;;;63.80;;
53269;SDS011;39159;45.634;9.420;2022-12-24T15:58:13;140.07;;;59.22;;
53269;SDS011;39159;45.634;9.420;2022-12-24T16:00:41;140.05;;;61.50;;
53269;SDS011;39159;45.634;9.420;2022-12-24T16:03:10;162.70;;;65.63;;
53269;SDS011;39159;45.634;9.420;2022-12-24T16:05:42;150.40;;;66.47;;
53269;SDS011;39159;45.634;9.420;2022-12-24T16:10:34;143.63;;;64.13;;
53269;SDS011;39159;45.634;9.420;2022-12-24T16:13:24;159.80;;;68.20;;
53269;SDS011;39159;45.634;9.420;2022-12-24T16:16:03;142.98;;;63.25;;
53269;SDS011;39159;45.634;9.420;2022-12-24T16:18:39;144.45;;;61.80;;
53269;SDS011;39159;45.634;9.420;2022-12-24T16:21:09;174.15;;;68.07;;
53269;SDS011;39159;45.634;9.420;2022-12-24T16:23:44;152.23;;;64.28;;
53269;SDS011;39159;45.634;9.420;2022-12-24T16:26:12;162.05;;;66.93;;
53269;SDS011;39159;45.634;9.420;2022-12-24T16:28:38;169.10;;;68.43;;
53269;SDS011;39159;45.634;9.420;2022-12-24T16:31:04;175.60;;;71.35;;
53269;SDS011;39159;45.634;9.420;2022-12-24T16:33:29;171.65;;;70.50;;
53269;SDS011;39159;45.634;9.420;2022-12-24T16:35:55;178.18;;;70.55;;
53269;SDS011;39159;45.634;9.420;2022-12-24T16:38:21;172.02;;;72.95;;
53269;SDS011;39159;45.634;9.420;2022-12-24T16:40:46;184.10;;;70.68;;
53269;SDS011;39159;45.634;9.420;2022-12-24T16:43:12;188.15;;;75.70;;
53269;SDS011;39159;45.634;9.420;2022-12-24T16:46:00;199.70;;;74.50;;
53269;SDS011;39159;45.634;9.420;2022-12-24T16:48:27;199.10;;;74.45;;
53269;SDS011;39159;45.634;9.420;2022-12-24T16:50:53;215.00;;;77.97;;
53269;SDS011;39159;45.634;9.420;2022-12-24T16:53:19;211.00;;;77.65;;
53269;SDS011;39159;45.634;9.420;2022-12-24T16:55:47;226.75;;;78.55;;
53269;SDS011;39159;45.634;9.420;2022-12-24T16:58:15;212.68;;;76.70;;
53269;SDS011;39159;45.634;9.420;2022-12-24T17:00:41;211.32;;;76.13;;
53269;SDS011;39159;45.634;9.420;2022-12-24T17:03:08;208.93;;;77.15;;
53269;SDS011;39159;45.634;9.420;2022-12-24T17:05:37;210.10;;;78.53;;
53269;SDS011;39159;45.634;9.420;2022-12-24T17:08:04;187.05;;;72.15;;
53269;SDS011;39159;45.634;9.420;2022-12-24T17:10:30;199.85;;;74.40;;
53269;SDS011;39159;45.634;9.420;2022-12-24T17:12:56;191.23;;;69.90;;
53269;SDS011;39159;45.634;9.420;2022-12-24T17:15:21;184.77;;;71.40;;
53269;SDS011;39159;45.634;9.420;2022-12-24T17:17:47;168.82;;;66.40;;
53269;SDS011;39159;45.634;9.420;2022-12-24T17:20:12;185.38;;;70.97;;
53269;SDS011;39159;45.634;9.420;2022-12-24T17:22:38;179.35;;;68.00;;
53269;SDS011;39159;45.634;9.420;2022-12-24T17:25:04;170.15;;;67.22;;